createdAt,value
2022-07-28T00:03:15.976Z,14.78
2022-07-28T00:08:18.528Z,13.63
2022-07-28T00:13:21.014Z,13.15
2022-07-28T00:18:26.185Z,12.95
2022-07-28T00:23:38.890Z,12.69
2022-07-28T00:28:42.272Z,12.63
2022-07-28T00:33:46.511Z,13.43
2022-07-28T00:38:49.024Z,13.04
2022-07-28T00:43:54.074Z,13.07
2022-07-28T00:48:57.965Z,13.27
2022-07-28T00:54:00.678Z,13.93
2022-07-28T00:59:03.597Z,12.58
2022-07-28T01:04:07.693Z,11.90
2022-07-28T01:09:19.762Z,12.93
2022-07-28T01:14:26.757Z,12.45
2022-07-28T01:19:50.670Z,12.17
2022-07-28T01:25:00.268Z,12.42
2022-07-28T01:30:07.378Z,12.09
2022-07-28T01:35:15.491Z,12.71
2022-07-28T01:40:21.778Z,13.03
2022-07-28T01:45:25.956Z,12.55
2022-07-28T01:50:32.195Z,12.96
2022-07-28T01:55:36.031Z,12.86
2022-07-28T02:00:40.280Z,13.21
2022-07-28T02:05:45.703Z,12.29
2022-07-28T02:11:04.776Z,12.13
2022-07-28T02:16:12.923Z,11.80
2022-07-28T02:21:17.363Z,11.86
2022-07-28T02:26:22.960Z,12.58
2022-07-28T02:31:28.999Z,12.49
2022-07-28T02:36:38.987Z,12.54
2022-07-28T02:41:45.050Z,12.07
2022-07-28T02:46:52.297Z,12.17
2022-07-28T02:51:56.877Z,12.19
2022-07-28T02:57:00.246Z,12.35
2022-07-28T03:02:03.584Z,12.72
2022-07-28T03:07:07.887Z,12.70
2022-07-28T03:12:11.069Z,12.13
2022-07-28T03:17:13.850Z,12.40
2022-07-28T03:22:17.783Z,12.55
2022-07-28T03:27:23.880Z,11.80
2022-07-28T03:32:28.546Z,11.41
2022-07-28T03:37:36.958Z,11.79
2022-07-28T03:42:41.841Z,11.81
2022-07-28T03:47:51.175Z,11.74
2022-07-28T03:52:55.433Z,11.26
2022-07-28T03:57:58.182Z,11.89
2022-07-28T04:03:00.639Z,11.46
2022-07-28T04:08:04.572Z,11.89
2022-07-28T04:13:07.877Z,12.04
2022-07-28T04:18:10.593Z,11.84
2022-07-28T04:23:14.469Z,12.17
2022-07-28T04:28:17.051Z,12.67
2022-07-28T04:33:19.687Z,13.23
2022-07-28T04:38:23.506Z,14.05
2022-07-28T04:43:26.275Z,14.19
2022-07-28T04:48:28.758Z,14.26
2022-07-28T04:53:32.556Z,14.81
2022-07-28T04:58:35.044Z,15.26
2022-07-28T05:03:37.963Z,15.39
2022-07-28T05:08:41.844Z,15.34
2022-07-28T05:13:44.384Z,15.62
2022-07-28T05:18:47.265Z,16.02
2022-07-28T05:23:51.307Z,16.25
2022-07-28T05:28:53.793Z,16.44
2022-07-28T05:33:56.312Z,16.52
2022-07-28T05:39:00.834Z,16.51
2022-07-28T05:44:03.533Z,16.03
2022-07-28T05:49:06.403Z,15.80
2022-07-28T05:54:10.380Z,16.29
2022-07-28T05:59:14.852Z,16.05
2022-07-28T06:04:27.754Z,15.76
2022-07-28T06:09:32.325Z,16.20
2022-07-28T06:14:35.037Z,15.96
2022-07-28T06:19:37.558Z,16.22
2022-07-28T06:24:41.374Z,16.41
2022-07-28T06:29:43.950Z,16.50
2022-07-28T06:34:46.420Z,16.49
2022-07-28T06:39:50.274Z,16.88
2022-07-28T06:44:58.955Z,16.68
2022-07-28T06:50:02.732Z,16.67
2022-07-28T06:55:07.416Z,16.46
2022-07-28T07:00:14.280Z,16.59
2022-07-28T07:05:16.866Z,17.08
2022-07-28T07:10:20.695Z,17.01
2022-07-28T07:15:23.187Z,16.82
2022-07-28T07:20:25.745Z,17.06
2022-07-28T07:25:29.542Z,17.32
2022-07-28T07:30:32.031Z,17.81
2022-07-28T07:35:35.070Z,18.02
2022-07-28T07:40:38.947Z,18.22
2022-07-28T07:45:42.064Z,18.07
2022-07-28T07:50:44.975Z,18.21
2022-07-28T07:55:48.781Z,18.62
2022-07-28T08:00:51.585Z,18.58
2022-07-28T08:05:56.651Z,18.53
2022-07-28T08:11:01.351Z,19.14
2022-07-28T08:16:07.162Z,19.26
2022-07-28T08:21:09.614Z,19.56
2022-07-28T08:26:13.376Z,19.38
2022-07-28T08:31:17.751Z,19.52
2022-07-28T08:36:20.641Z,19.83
2022-07-28T08:41:37.560Z,20.12
2022-07-28T08:46:40.810Z,20.49
2022-07-28T08:51:44.569Z,20.62
2022-07-28T08:56:49.209Z,20.53
2022-07-28T09:01:57.258Z,20.72
2022-07-28T09:07:00.316Z,20.15
2022-07-28T09:12:05.761Z,20.87
2022-07-28T09:17:08.712Z,20.69
2022-07-28T09:22:11.288Z,21.45
2022-07-28T09:27:16.500Z,21.36
2022-07-28T09:32:20.524Z,21.60
2022-07-28T09:37:27.475Z,21.30
2022-07-28T09:42:47.024Z,21.73
2022-07-28T09:47:49.824Z,21.75
2022-07-28T09:52:52.474Z,22.15
2022-07-28T09:57:56.877Z,22.26
2022-07-28T10:03:00.486Z,22.71
2022-07-28T10:08:03.372Z,22.67
2022-07-28T10:13:07.327Z,23.25
2022-07-28T10:18:09.821Z,22.90
2022-07-28T10:23:13.707Z,22.96
2022-07-28T10:28:21.830Z,23.57
2022-07-28T10:33:26.411Z,26.17
2022-07-28T10:38:34.722Z,26.78
2022-07-28T10:43:42.930Z,27.44
2022-07-28T10:48:48.293Z,26.69
2022-07-28T10:53:57.021Z,27.11
2022-07-28T10:59:11.735Z,27.56
2022-07-28T11:04:52.302Z,28.77
2022-07-28T11:10:16.266Z,28.80
2022-07-28T11:15:33.485Z,28.44
2022-07-28T11:21:08.522Z,28.91
2022-07-28T11:26:37.324Z,27.18
2022-07-28T11:32:06.223Z,27.17
2022-07-28T11:37:14.963Z,26.56
2022-07-28T11:42:27.440Z,28.02
2022-07-28T11:47:31.776Z,28.38
2022-07-28T11:52:34.350Z,27.69
2022-07-28T11:57:44.067Z,28.16
2022-07-28T12:02:46.761Z,26.43
2022-07-28T12:07:52.435Z,26.44
2022-07-28T12:12:58.245Z,27.33
2022-07-28T12:18:01.000Z,27.03
2022-07-28T12:23:06.026Z,26.96
2022-07-28T12:28:17.310Z,26.41
2022-07-28T12:33:26.086Z,26.25
2022-07-28T12:38:31.932Z,27.95
2022-07-28T12:43:35.808Z,28.33
2022-07-28T12:48:41.078Z,27.01
2022-07-28T12:53:52.261Z,27.77
2022-07-28T12:59:13.190Z,26.43
2022-07-28T13:04:16.499Z,27.13
2022-07-28T13:09:23.778Z,28.07
2022-07-28T13:14:43.679Z,29.46
2022-07-28T13:19:47.318Z,28.57
2022-07-28T13:24:49.980Z,27.62
2022-07-28T13:29:54.338Z,27.08
2022-07-28T13:34:57.073Z,27.23
2022-07-28T13:39:59.784Z,27.22
2022-07-28T13:45:05.101Z,27.70
2022-07-28T13:50:09.656Z,27.60
2022-07-28T13:55:14.099Z,27.12
2022-07-28T14:00:23.556Z,26.44
2022-07-28T14:05:31.952Z,26.73
2022-07-28T14:10:35.705Z,26.76
2022-07-28T14:15:40.155Z,27.65
2022-07-28T14:20:42.781Z,27.29
2022-07-28T14:25:49.508Z,28.04
2022-07-28T14:30:54.219Z,27.32
2022-07-28T14:35:57.043Z,26.06
2022-07-28T14:40:59.589Z,26.20
2022-07-28T14:46:16.429Z,25.96
2022-07-28T14:51:23.802Z,26.75
2022-07-28T14:56:26.391Z,26.81
2022-07-28T15:01:30.268Z,26.47
2022-07-28T15:06:38.743Z,26.72
2022-07-28T15:11:42.019Z,27.16
2022-07-28T15:16:45.909Z,27.12
2022-07-28T15:21:48.695Z,28.04
2022-07-28T15:26:51.197Z,28.20
2022-07-28T15:31:55.388Z,27.41
2022-07-28T15:36:59.048Z,26.50
2022-07-28T15:42:01.623Z,27.37
2022-07-28T15:47:05.708Z,27.21
2022-07-28T15:52:08.337Z,26.52
2022-07-28T15:57:11.996Z,26.84
2022-07-28T16:02:17.474Z,26.08
2022-07-28T16:07:22.333Z,26.34
2022-07-28T16:12:25.873Z,26.84
2022-07-28T16:17:29.691Z,26.53
2022-07-28T16:22:32.403Z,26.25
2022-07-28T16:27:35.321Z,25.81
2022-07-28T16:32:39.224Z,25.76
2022-07-28T16:37:41.958Z,26.25
2022-07-28T16:42:44.435Z,26.20
2022-07-28T16:47:48.505Z,26.06
2022-07-28T16:52:52.028Z,26.24
2022-07-28T16:57:54.983Z,26.07
2022-07-28T17:02:58.914Z,25.84
2022-07-28T17:08:01.365Z,26.58
2022-07-28T17:13:04.114Z,26.74
2022-07-28T17:18:08.226Z,26.40
2022-07-28T17:23:10.827Z,26.31
2022-07-28T17:28:14.288Z,26.05
2022-07-28T17:33:18.082Z,25.97
2022-07-28T17:38:21.635Z,26.57
2022-07-28T17:43:24.514Z,26.36
2022-07-28T17:48:28.478Z,26.12
2022-07-28T17:53:31.076Z,26.20
2022-07-28T17:58:33.810Z,25.96
2022-07-28T18:03:57.649Z,25.97
2022-07-28T18:09:06.646Z,26.18
2022-07-28T18:14:09.821Z,26.14
2022-07-28T18:19:13.963Z,25.73
2022-07-28T18:24:18.017Z,25.77
2022-07-28T18:29:21.781Z,25.61
2022-07-28T18:34:25.861Z,25.04
2022-07-28T18:39:28.411Z,25.03
2022-07-28T18:44:31.087Z,25.11
2022-07-28T18:49:37.271Z,24.54
2022-07-28T18:54:40.472Z,24.48
2022-07-28T18:59:45.612Z,24.51
2022-07-28T19:04:52.954Z,24.61
2022-07-28T19:09:55.446Z,24.85
2022-07-28T19:14:59.088Z,24.17
2022-07-28T19:20:03.002Z,24.45
2022-07-28T19:25:07.757Z,24.52
2022-07-28T19:30:11.042Z,24.21
2022-07-28T19:35:15.063Z,24.26
2022-07-28T19:40:17.889Z,23.95
2022-07-28T19:45:23.375Z,23.35
2022-07-28T19:50:27.561Z,22.93
2022-07-28T19:55:32.226Z,22.86
2022-07-28T20:00:34.793Z,22.78
2022-07-28T20:05:38.987Z,22.64
2022-07-28T20:10:41.675Z,21.94
2022-07-28T20:15:44.158Z,21.77
2022-07-28T20:20:48.361Z,21.95
2022-07-28T20:25:51.119Z,21.59
2022-07-28T20:30:53.648Z,22.08
2022-07-28T20:35:57.682Z,22.16
2022-07-28T20:41:00.135Z,22.30
2022-07-28T20:46:09.049Z,21.70
2022-07-28T20:51:12.914Z,21.76
2022-07-28T20:56:15.781Z,21.33
2022-07-28T21:01:23.314Z,21.32
2022-07-28T21:06:27.935Z,21.54
2022-07-28T21:11:34.743Z,21.22
2022-07-28T21:16:37.811Z,21.26
2022-07-28T21:21:42.072Z,20.79
2022-07-28T21:26:44.831Z,20.87
2022-07-28T21:32:02.348Z,21.10
2022-07-28T21:37:11.907Z,21.19
2022-07-28T21:42:14.520Z,21.68
2022-07-28T21:47:17.071Z,21.86
2022-07-28T21:52:21.933Z,21.70
2022-07-28T21:57:25.015Z,21.64
2022-07-28T22:02:28.235Z,21.10
2022-07-28T22:07:32.995Z,20.85
2022-07-28T22:12:35.488Z,20.60
2022-07-28T22:17:38.028Z,19.94
2022-07-28T22:22:42.020Z,19.74
2022-07-28T22:27:44.523Z,19.48
2022-07-28T22:32:47.177Z,20.43
2022-07-28T22:37:51.154Z,20.18
2022-07-28T22:42:53.627Z,19.51
2022-07-28T22:47:56.103Z,19.94
2022-07-28T22:52:59.977Z,19.61
2022-07-28T22:58:05.567Z,19.24
2022-07-28T23:03:08.610Z,19.10
2022-07-28T23:08:16.838Z,18.53
2022-07-28T23:13:19.381Z,19.54
2022-07-28T23:18:21.820Z,20.18
2022-07-28T23:23:25.804Z,19.03
2022-07-28T23:28:28.282Z,19.58
2022-07-28T23:33:56.441Z,19.05
2022-07-28T23:38:55.942Z,20.05
2022-07-28T23:43:58.423Z,20.07
2022-07-28T23:49:01.137Z,20.35
2022-07-28T23:54:05.441Z,20.10
2022-07-28T23:59:11.782Z,19.89
